Hosin, República Checa

1:13 PM CEST en Octubre 25, 2014 (GMT +0200)
Amut.NET-Protivin | Change Station
CLOSE
Current Station
Estación meteorológica personal
Location: Protivin, Jihocesky kraj
Altura: 1316 ft
Estaciones meteorológicas cercanas

Alt 1316 ft 49.20 °N, 14.22 °E | Updated 2 minutes ago

Scattered Clouds
Nubes dispersas
43.5 ° F
Sensación térmica 42 ° F
N
3.4
Viento Variable Viento desde Oeste
Gusts 7.8 mph

Hoy
Alta -- | Baja -- ° F
--% Posibilidad de precipitaciones
Ayer
Alta -- | Baja -- ° F
Precip. -- pul
7:37 AM 5:53 PM
Creciente, 3% visible
Presión 30.21 pul
Visibilidad 5.6 Millas
Nubes Nubes dispersas 1200 ft
Vientos helados 42 ° F
Punto de rocío 36 ° F
Humedad 79%
Precipitaciones 0.00 pul
Espesor de la nieve No disponible.
UV 2 de una escala de 12
Polen No disponible.
Calidad del aire No disponible.
Flu Activity No disponible.
METAR LOWL 251050Z 18003KT 120V240 9000 SCT012 07/04 Q1023 NOSIG

More Conditions Fewer Conditions

Presión 30.21 pul
Visibilidad 5.6 Millas
Nubes Nubes dispersas 1200 ft
Vientos helados 42 ° F
Punto de rocío 36 ° F
Humedad 79%
Precipitaciones 0.00 pul
Espesor de la nieve No disponible.
UV 2 de una escala de 12
Polen No disponible.
Calidad del aire No disponible.
Flu Activity No disponible.
METAR LOWL 251050Z 18003KT 120V240 9000 SCT012 07/04 Q1023 NOSIG

More Conditions Fewer Conditions

10-Day Weather Forecast

Almanac

Astronomía

Oct. 25, 2014 Salida Puesta
Hora real 7:37 AM CEST 5:53 PM CEST
Crepúsculo civil 7:05 AM CEST 6:26 PM CEST
Crepúsculo náutico 6:28 AM CEST 7:03 PM CEST
Crepúsculo astronómico 5:51 AM CEST 7:39 PM CEST
Luna 9:05 AM CEST 6:56 PM CEST
Horas de luz 11h 21m
Horas de luz
10h 15m
Tomorrow will be 3m 23s shorter.
Creciente, 3% of the Moon is Illuminated
Hoy
Creciente
Oct 30
Cuarto creciente
Nov 6
Luna llena
Nov 14
Cuarto menguante
Nov 22
Nueva

Extremos de ayer

Máximos del país Bajas del país

Community

WunderPhotos

Upload Photos

1,764,808 ¡fotos cargadas!

Nearby

Calidad del aire

Not available.

Grosos de nieve

Not available.

Actividad de terremotos

Ciudad Distance Mag. Tiempo y dato
No hay informes recientes de la actividad sísmica.
Magnitud mínima muestra es 2,5.

Temperaturas de aguas costeras

Lugar Temperatura
Sin partes meteorológicos de las estaciones

Estaciones meteorológicas cercanas